Time;durP1;ratioP1;P1;durP2;ratioP2;P2;SDS_P1;SDS_P2;PMS_P1;PMS_P2;Temp;Humidity;BMP_temperature;BMP_pressure;BME280_temperature;BME280_humidity;BME280_pressure;Samples;Min_cycle;Max_cycle;Signal;HPM_P1;HPM_P2
2023/10/26 00:00:44;;;;;;;4.40;3.22;;;8.90;99.90;;;;;;5000856;28;20099;-72
2023/10/26 00:03:10;;;;;;;9.95;5.20;;;8.90;99.90;;;;;;5016384;28;20046;-72
2023/10/26 00:05:36;;;;;;;6.55;4.43;;;8.90;99.90;;;;;;5001388;28;20281;-72
2023/10/26 00:08:01;;;;;;;6.10;3.70;;;8.80;99.90;;;;;;4999429;28;20046;-71
2023/10/26 00:10:27;;;;;;;3.90;3.47;;;8.80;99.90;;;;;;4999382;28;20054;-72
2023/10/26 00:12:52;;;;;;;7.72;2.97;;;8.80;99.90;;;;;;5001497;28;20100;-72
2023/10/26 00:15:18;;;;;;;8.25;3.92;;;8.80;99.90;;;;;;5001520;28;20046;-72
2023/10/26 00:17:44;;;;;;;15.93;3.33;;;8.80;99.90;;;;;;4999643;28;20412;-72
2023/10/26 00:20:10;;;;;;;4.93;2.55;;;8.70;99.90;;;;;;5000202;28;20822;-72
2023/10/26 00:22:35;;;;;;;8.25;2.80;;;8.70;99.90;;;;;;5000761;28;20025;-72
2023/10/26 00:25:01;;;;;;;7.35;3.55;;;8.70;99.90;;;;;;4999097;28;20417;-72
2023/10/26 00:27:26;;;;;;;4.43;2.50;;;8.70;99.90;;;;;;5000063;28;20133;-72
2023/10/26 00:29:52;;;;;;;6.80;3.75;;;8.70;99.90;;;;;;5000016;28;20396;-72
2023/10/26 00:32:17;;;;;;;9.02;4.82;;;8.70;99.90;;;;;;5001471;28;20435;-72
2023/10/26 00:34:43;;;;;;;14.48;5.72;;;8.80;99.90;;;;;;5000036;28;20053;-72
2023/10/26 00:37:09;;;;;;;15.18;5.38;;;8.80;99.90;;;;;;4999782;28;20056;-71
2023/10/26 00:39:35;;;;;;;10.35;5.43;;;8.90;99.90;;;;;;5004609;28;20112;-72
2023/10/26 00:42:00;;;;;;;9.80;4.88;;;9.00;99.90;;;;;;5005842;28;20149;-71
2023/10/26 00:44:26;;;;;;;16.00;7.10;;;9.10;99.90;;;;;;5001705;28;20514;-72
2023/10/26 00:46:54;;;;;;;14.07;5.65;;;9.10;99.90;;;;;;5004248;28;20116;-72
2023/10/26 00:49:20;;;;;;;11.48;6.05;;;9.10;99.90;;;;;;5004597;28;20214;-72
2023/10/26 00:51:59;;;;;;;11.68;5.95;;;9.10;99.90;;;;;;5005343;28;20034;-72
2023/10/26 00:54:27;;;;;;;11.55;6.75;;;9.10;99.90;;;;;;5002392;28;20073;-72
2023/10/26 00:56:54;;;;;;;14.57;6.60;;;9.20;99.90;;;;;;5002731;28;20057;-72
2023/10/26 00:59:20;;;;;;;12.15;6.53;;;9.20;99.90;;;;;;5004044;28;20275;-73
2023/10/26 01:01:48;;;;;;;11.90;5.93;;;9.20;99.90;;;;;;5004272;28;20473;-73
2023/10/26 01:04:14;;;;;;;14.85;6.70;;;9.20;99.90;;;;;;5001773;28;20365;-74
2023/10/26 01:06:44;;;;;;;14.32;5.93;;;9.20;99.90;;;;;;5002723;28;20081;-73
2023/10/26 01:09:10;;;;;;;17.23;7.20;;;9.20;99.90;;;;;;5017221;28;20040;-73
2023/10/26 01:11:37;;;;;;;11.18;6.57;;;9.20;99.90;;;;;;5003362;28;20424;-73
2023/10/26 01:14:06;;;;;;;15.85;7.90;;;9.20;99.90;;;;;;5004167;28;20076;-73
2023/10/26 01:16:32;;;;;;;10.77;7.45;;;9.20;99.90;;;;;;5003336;28;20046;-73
2023/10/26 01:18:59;;;;;;;18.85;8.00;;;9.30;99.90;;;;;;5002436;28;20056;-73
2023/10/26 01:21:25;;;;;;;18.17;8.82;;;9.30;99.90;;;;;;5002167;28;20050;-73
2023/10/26 01:23:51;;;;;;;19.50;7.72;;;9.30;99.90;;;;;;5002349;28;20048;-73
2023/10/26 01:26:17;;;;;;;21.85;8.73;;;9.30;99.90;;;;;;5001481;28;20049;-73
2023/10/26 01:28:42;;;;;;;20.88;9.68;;;9.20;99.90;;;;;;5000595;28;20040;-73
2023/10/26 01:31:08;;;;;;;20.38;8.07;;;9.30;99.90;;;;;;5000830;28;20077;-73
2023/10/26 01:33:33;;;;;;;19.02;8.20;;;9.30;99.90;;;;;;4985944;28;20038;-73
2023/10/26 01:35:59;;;;;;;18.67;8.18;;;9.30;99.90;;;;;;5003351;28;20038;-73
2023/10/26 01:38:24;;;;;;;21.77;9.32;;;9.30;99.90;;;;;;5001609;28;20110;-73
2023/10/26 01:40:52;;;;;;;22.42;9.05;;;9.30;99.90;;;;;;5001307;28;20053;-73
2023/10/26 01:43:17;;;;;;;21.88;10.82;;;9.30;99.90;;;;;;5002310;28;20124;-73
2023/10/26 01:45:43;;;;;;;23.77;10.95;;;9.30;99.90;;;;;;4984904;28;20129;-73
2023/10/26 01:48:09;;;;;;;23.40;11.88;;;9.30;99.90;;;;;;5000280;28;20042;-74
2023/10/26 01:50:34;;;;;;;30.67;10.82;;;9.30;99.90;;;;;;5003129;28;20412;-74
2023/10/26 01:53:00;;;;;;;30.92;10.32;;;9.40;99.90;;;;;;5000713;28;20073;-73
2023/10/26 01:55:26;;;;;;;34.72;11.77;;;9.40;99.90;;;;;;4984531;28;20044;-73
2023/10/26 01:57:52;;;;;;;36.55;12.20;;;9.40;99.90;;;;;;5002757;28;20030;-73
2023/10/26 02:00:18;;;;;;;27.75;12.75;;;9.40;99.90;;;;;;5000654;28;20057;-73
2023/10/26 02:02:46;;;;;;;35.25;12.80;;;9.50;99.90;;;;;;5002012;28;20042;-74
2023/10/26 02:05:11;;;;;;;30.95;13.82;;;9.50;99.90;;;;;;5000915;28;20197;-73
2023/10/26 02:07:37;;;;;;;28.33;13.80;;;9.50;99.90;;;;;;4999427;28;20128;-74
2023/10/26 02:10:03;;;;;;;29.02;12.60;;;9.50;99.90;;;;;;5001483;28;20052;-73
2023/10/26 02:12:28;;;;;;;27.83;12.52;;;9.50;99.90;;;;;;4985431;28;20064;-73
2023/10/26 02:14:54;;;;;;;26.85;14.05;;;9.50;99.90;;;;;;5002467;28;20057;-73
2023/10/26 02:17:19;;;;;;;30.20;13.88;;;9.50;99.90;;;;;;5000139;28;20124;-73
2023/10/26 02:19:45;;;;;;;31.50;15.80;;;9.50;99.90;;;;;;5001578;28;20076;-73
2023/10/26 02:22:11;;;;;;;29.25;12.50;;;9.50;99.90;;;;;;4999418;28;20041;-73
2023/10/26 02:24:36;;;;;;;31.10;14.73;;;9.50;99.90;;;;;;5001024;28;20513;-74
2023/10/26 02:27:02;;;;;;;31.60;14.50;;;9.60;99.90;;;;;;5000545;28;20041;-73
2023/10/26 02:29:27;;;;;;;29.48;15.73;;;9.60;99.90;;;;;;5000673;28;20536;-73
2023/10/26 02:31:53;;;;;;;32.35;14.68;;;9.60;99.90;;;;;;5000689;28;20057;-73
2023/10/26 02:34:18;;;;;;;38.40;16.45;;;9.60;99.90;;;;;;5002104;28;20536;-73
2023/10/26 02:36:44;;;;;;;27.52;13.55;;;9.60;99.90;;;;;;5000362;28;20030;-73
2023/10/26 02:39:09;;;;;;;31.38;13.90;;;9.60;99.90;;;;;;5000730;28;20072;-74
2023/10/26 02:41:35;;;;;;;28.50;13.05;;;9.50;99.90;;;;;;5000087;28;20045;-74
2023/10/26 02:44:00;;;;;;;35.10;15.10;;;9.50;99.90;;;;;;5000680;28;20040;-73
2023/10/26 02:46:26;;;;;;;32.92;15.15;;;9.50;99.90;;;;;;5001007;28;20108;-74
2023/10/26 02:48:52;;;;;;;32.55;13.00;;;9.50;99.90;;;;;;5001735;28;20033;-73
2023/10/26 02:51:17;;;;;;;32.15;12.88;;;9.60;99.90;;;;;;4983932;28;20046;-74
2023/10/26 02:53:43;;;;;;;35.25;15.55;;;9.50;99.90;;;;;;4999390;28;20443;-73
2023/10/26 02:56:08;;;;;;;29.83;14.57;;;9.50;99.90;;;;;;5000363;28;20037;-73
2023/10/26 02:58:34;;;;;;;26.83;12.73;;;9.50;99.90;;;;;;4999990;28;20049;-74
2023/10/26 03:01:00;;;;;;;37.85;12.90;;;9.50;99.90;;;;;;4999210;28;20052;-73
2023/10/26 03:03:25;;;;;;;32.33;12.18;;;9.40;99.90;;;;;;5000355;28;20495;-73
2023/10/26 03:05:51;;;;;;;35.33;12.07;;;9.40;99.90;;;;;;5001528;28;20076;-73
2023/10/26 03:08:18;;;;;;;47.80;14.38;;;9.40;99.90;;;;;;4999042;28;20551;-73
2023/10/26 03:10:43;;;;;;;28.02;15.35;;;9.40;99.90;;;;;;5000204;28;20632;-73
2023/10/26 03:13:11;;;;;;;24.17;11.05;;;9.30;99.90;;;;;;4999760;28;20306;-74
2023/10/26 03:15:37;;;;;;;27.33;13.52;;;9.30;99.90;;;;;;5000210;28;20049;-74
2023/10/26 03:18:02;;;;;;;23.70;11.75;;;9.20;99.90;;;;;;4999541;28;20085;-73
2023/10/26 03:20:31;;;;;;;25.15;12.30;;;9.20;99.90;;;;;;5000065;28;20546;-73
2023/10/26 03:22:57;;;;;;;18.70;9.98;;;9.20;99.90;;;;;;4998521;28;20052;-73
2023/10/26 03:25:22;;;;;;;22.00;12.10;;;9.20;99.90;;;;;;4999367;28;20497;-73
2023/10/26 03:27:48;;;;;;;65.28;16.20;;;9.20;99.90;;;;;;4999884;28;20395;-73
2023/10/26 03:30:13;;;;;;;23.42;10.07;;;9.10;99.90;;;;;;4999439;28;20041;-74
2023/10/26 03:32:39;;;;;;;31.42;10.65;;;9.10;99.90;;;;;;4999259;28;20045;-73
2023/10/26 03:35:05;;;;;;;23.80;11.73;;;9.00;99.90;;;;;;4999424;28;20048;-74
2023/10/26 03:37:30;;;;;;;24.67;9.73;;;9.00;99.90;;;;;;5000550;28;20042;-73
2023/10/26 03:39:56;;;;;;;49.15;11.60;;;9.00;99.90;;;;;;5000872;28;20042;-73
2023/10/26 03:42:21;;;;;;;18.45;10.05;;;8.90;99.90;;;;;;4998763;28;20096;-74
2023/10/26 03:44:47;;;;;;;69.18;12.02;;;8.90;99.90;;;;;;5000607;28;20050;-73
2023/10/26 03:47:13;;;;;;;43.78;13.35;;;8.90;99.90;;;;;;4998526;28;20053;-73
2023/10/26 03:49:39;;;;;;;19.77;11.50;;;8.80;99.90;;;;;;4998973;28;20129;-74
2023/10/26 03:52:05;;;;;;;35.50;9.35;;;8.80;99.90;;;;;;4999604;28;20065;-74
2023/10/26 03:54:30;;;;;;;57.22;13.15;;;8.80;99.90;;;;;;5000886;28;20073;-73
2023/10/26 03:56:56;;;;;;;23.85;9.10;;;8.80;99.90;;;;;;4999618;28;20572;-73
2023/10/26 03:59:21;;;;;;;25.38;11.57;;;8.80;99.90;;;;;;4998485;28;20420;-73
2023/10/26 04:01:47;;;;;;;15.23;8.95;;;8.70;99.90;;;;;;5000751;28;20040;-74
2023/10/26 04:04:12;;;;;;;18.52;8.68;;;8.70;99.90;;;;;;5000457;28;20053;-74
2023/10/26 04:06:38;;;;;;;99.93;14.48;;;8.60;99.90;;;;;;4999684;28;20369;-74
2023/10/26 04:09:04;;;;;;;38.20;10.15;;;8.60;99.90;;;;;;4999557;28;20504;-74
2023/10/26 04:11:29;;;;;;;43.00;11.25;;;8.70;99.90;;;;;;5000714;28;20050;-73
2023/10/26 04:13:55;;;;;;;72.25;13.93;;;8.70;99.90;;;;;;5000379;28;20529;-73
2023/10/26 04:16:21;;;;;;;60.33;11.73;;;8.70;99.90;;;;;;4998797;28;20457;-74
2023/10/26 04:18:47;;;;;;;54.75;12.35;;;8.80;99.90;;;;;;4998725;28;20493;-73
2023/10/26 04:21:12;;;;;;;52.55;10.93;;;8.70;99.90;;;;;;5000491;28;20381;-74
2023/10/26 04:23:38;;;;;;;52.30;12.30;;;8.70;99.90;;;;;;4998598;28;20324;-74
2023/10/26 04:26:04;;;;;;;51.80;8.32;;;8.70;99.90;;;;;;5000571;28;20081;-74
2023/10/26 04:28:30;;;;;;;28.75;9.65;;;8.70;99.90;;;;;;5000893;28;20041;-74
2023/10/26 04:30:56;;;;;;;26.42;8.80;;;8.70;99.90;;;;;;4998358;28;20100;-73
2023/10/26 04:33:21;;;;;;;74.25;13.48;;;8.60;99.90;;;;;;4999895;28;20412;-73
2023/10/26 04:35:48;;;;;;;27.20;9.32;;;8.60;99.90;;;;;;4999295;28;20673;-73
2023/10/26 04:38:14;;;;;;;61.33;11.10;;;8.60;99.90;;;;;;4981167;28;20096;-74
2023/10/26 04:40:41;;;;;;;47.58;10.93;;;8.60;99.90;;;;;;4999104;28;20289;-73
2023/10/26 04:43:07;;;;;;;25.70;8.43;;;8.60;99.90;;;;;;4998556;28;20121;-74
2023/10/26 04:45:34;;;;;;;45.38;10.50;;;8.60;99.90;;;;;;4982722;28;20046;-73
2023/10/26 04:48:00;;;;;;;24.70;7.80;;;8.60;99.90;;;;;;4998876;28;20481;-73
2023/10/26 04:50:26;;;;;;;32.28;7.93;;;8.60;99.90;;;;;;4998676;28;20238;-73
2023/10/26 04:52:52;;;;;;;23.40;9.02;;;8.60;99.90;;;;;;4999915;28;20042;-72
2023/10/26 04:55:18;;;;;;;19.25;7.13;;;8.70;99.90;;;;;;4998196;28;20132;-73
2023/10/26 04:57:43;;;;;;;48.95;7.90;;;8.70;99.90;;;;;;5000174;28;20129;-73
2023/10/26 05:00:10;;;;;;;12.23;7.13;;;8.70;99.90;;;;;;4998049;28;20085;-73
2023/10/26 05:02:36;;;;;;;27.65;8.00;;;8.70;99.90;;;;;;4998859;28;20069;-74
2023/10/26 05:05:03;;;;;;;28.95;7.10;;;8.70;99.90;;;;;;4999664;28;20080;-74
2023/10/26 05:07:30;;;;;;;16.48;7.43;;;8.70;99.90;;;;;;4999838;28;20085;-73
2023/10/26 05:09:59;;;;;;;23.00;8.13;;;8.70;99.90;;;;;;5000660;28;20046;-73
2023/10/26 05:12:24;;;;;;;32.17;8.13;;;8.70;99.90;;;;;;4999118;28;20125;-73
2023/10/26 05:14:50;;;;;;;32.45;9.05;;;8.70;99.90;;;;;;4999829;28;20132;-73
2023/10/26 05:17:16;;;;;;;17.88;8.15;;;8.60;99.90;;;;;;4998145;28;20081;-73
2023/10/26 05:19:41;;;;;;;36.47;7.38;;;8.60;99.90;;;;;;4991786;28;20042;-75
2023/10/26 05:22:07;;;;;;;13.27;7.32;;;8.60;99.90;;;;;;4990406;28;20515;-76
2023/10/26 05:24:32;;;;;;;15.57;6.82;;;8.50;99.90;;;;;;4993063;28;21020;-75
2023/10/26 05:26:58;;;;;;;16.17;6.55;;;8.60;99.90;;;;;;4994057;28;20057;-73
2023/10/26 05:29:24;;;;;;;22.63;6.78;;;8.50;99.90;;;;;;5001277;28;20550;-73
2023/10/26 05:31:50;;;;;;;28.80;9.15;;;8.60;99.90;;;;;;5004991;28;20141;-74
2023/10/26 05:34:15;;;;;;;38.20;8.80;;;8.50;99.90;;;;;;4994841;28;20077;-73
2023/10/26 05:36:41;;;;;;;21.23;6.47;;;8.60;99.90;;;;;;4982181;28;20038;-73
2023/10/26 05:39:06;;;;;;;15.18;5.90;;;8.60;99.90;;;;;;4994085;28;20050;-73
2023/10/26 05:41:33;;;;;;;31.52;6.60;;;8.50;99.90;;;;;;5000720;28;20069;-73
2023/10/26 05:43:59;;;;;;;15.45;6.78;;;8.50;99.90;;;;;;5004395;28;20073;-73
2023/10/26 05:46:25;;;;;;;12.65;5.25;;;8.40;99.90;;;;;;5001772;28;20580;-73
2023/10/26 05:48:50;;;;;;;18.55;5.97;;;8.40;99.90;;;;;;5002231;28;20033;-73
2023/10/26 05:51:16;;;;;;;34.22;7.63;;;8.30;99.90;;;;;;5002790;28;20041;-73
2023/10/26 05:53:42;;;;;;;23.55;6.50;;;8.30;99.90;;;;;;5003710;28;20084;-73
2023/10/26 05:56:08;;;;;;;14.05;6.07;;;8.20;99.90;;;;;;4992946;28;20042;-73
2023/10/26 05:58:34;;;;;;;13.65;4.45;;;8.20;99.90;;;;;;4991764;28;20041;-74
2023/10/26 06:01:00;;;;;;;8.93;5.30;;;8.20;99.90;;;;;;5002454;28;20046;-73
2023/10/26 06:03:26;;;;;;;6.95;4.70;;;8.20;99.90;;;;;;5003136;28;20227;-73
2023/10/26 06:05:57;;;;;;;12.90;6.38;;;8.20;99.90;;;;;;5003206;28;20050;-73
2023/10/26 06:08:23;;;;;;;14.02;4.75;;;8.20;99.90;;;;;;5002831;28;20038;-73
2023/10/26 06:10:48;;;;;;;20.65;5.90;;;8.20;99.90;;;;;;5003897;28;20456;-73
2023/10/26 06:13:14;;;;;;;38.15;8.57;;;8.10;99.90;;;;;;5018739;28;20129;-74
2023/10/26 06:15:40;;;;;;;18.52;6.60;;;8.10;99.90;;;;;;5002503;28;20063;-73
2023/10/26 06:18:05;;;;;;;20.63;6.72;;;8.10;99.90;;;;;;4993845;28;20030;-74
2023/10/26 06:20:31;;;;;;;16.42;5.82;;;8.10;99.90;;;;;;5002714;28;20082;-73
2023/10/26 06:22:56;;;;;;;17.30;6.18;;;8.20;99.90;;;;;;4999348;28;20368;-73
2023/10/26 06:25:23;;;;;;;27.60;5.38;;;8.20;99.90;;;;;;5001007;28;20112;-73
2023/10/26 06:27:49;;;;;;;44.30;8.00;;;8.20;99.90;;;;;;4984114;28;20483;-73
2023/10/26 06:30:15;;;;;;;16.13;6.07;;;8.20;99.90;;;;;;5000749;28;20277;-73
2023/10/26 06:32:42;;;;;;;23.00;6.40;;;8.30;99.90;;;;;;5000452;28;20100;-73
2023/10/26 06:35:08;;;;;;;28.17;6.05;;;8.30;99.90;;;;;;5000294;28;20050;-74
2023/10/26 06:37:33;;;;;;;27.90;4.90;;;8.30;99.90;;;;;;5001262;28;20527;-74
2023/10/26 06:39:59;;;;;;;34.70;6.38;;;8.30;99.90;;;;;;5002001;28;20302;-73
2023/10/26 06:42:24;;;;;;;55.70;8.63;;;8.30;99.90;;;;;;5001109;28;20400;-73
2023/10/26 06:44:50;;;;;;;36.10;7.60;;;8.30;99.90;;;;;;5002189;28;20072;-73
2023/10/26 06:47:16;;;;;;;28.67;6.40;;;8.30;99.90;;;;;;4983847;28;20448;-74
2023/10/26 06:49:42;;;;;;;19.45;5.18;;;8.30;99.90;;;;;;5001995;28;20046;-73
2023/10/26 06:52:08;;;;;;;68.93;7.78;;;8.40;99.90;;;;;;5000368;28;20034;-74
2023/10/26 06:54:34;;;;;;;12.95;4.40;;;8.40;99.90;;;;;;5001214;28;20281;-74
2023/10/26 06:56:59;;;;;;;23.20;5.03;;;8.40;99.90;;;;;;5001051;28;20050;-73
2023/10/26 06:59:25;;;;;;;17.48;5.68;;;8.30;99.90;;;;;;5000471;28;20413;-73
2023/10/26 07:01:51;;;;;;;17.05;4.97;;;8.40;99.90;;;;;;4983774;28;20081;-73
2023/10/26 07:04:17;;;;;;;26.08;5.07;;;8.30;99.90;;;;;;5000873;28;20041;-73
2023/10/26 07:06:42;;;;;;;56.70;5.47;;;8.30;99.90;;;;;;5000770;28;20092;-74
2023/10/26 07:09:08;;;;;;;27.35;5.10;;;8.30;99.90;;;;;;4998998;28;20061;-74
2023/10/26 07:11:34;;;;;;;46.50;6.65;;;8.30;99.90;;;;;;5000048;28;20210;-74
2023/10/26 07:14:00;;;;;;;13.98;4.90;;;8.30;99.90;;;;;;5001606;28;20046;-73
2023/10/26 07:16:25;;;;;;;12.60;4.90;;;8.40;99.90;;;;;;5001672;28;20056;-74
2023/10/26 07:18:52;;;;;;;49.35;6.90;;;8.40;99.90;;;;;;5002409;28;20116;-73
2023/10/26 07:21:17;;;;;;;13.63;5.10;;;8.40;99.90;;;;;;5000348;28;20085;-73
2023/10/26 07:23:43;;;;;;;20.13;5.30;;;8.40;99.90;;;;;;5001501;28;20504;-73
2023/10/26 07:26:09;;;;;;;16.10;6.07;;;8.50;99.90;;;;;;5001036;28;20100;-73
2023/10/26 07:28:35;;;;;;;16.58;6.80;;;8.50;99.90;;;;;;5000167;28;20103;-73
2023/10/26 07:31:01;;;;;;;23.42;7.82;;;8.60;99.90;;;;;;5003373;28;20500;-73
2023/10/26 07:33:26;;;;;;;18.60;7.57;;;8.60;99.90;;;;;;5000195;28;20409;-73
2023/10/26 07:35:55;;;;;;;20.38;7.05;;;8.60;99.90;;;;;;4984594;28;20045;-73
2023/10/26 07:38:20;;;;;;;17.40;7.40;;;8.70;99.90;;;;;;5002099;28;20042;-73
2023/10/26 07:40:53;;;;;;;21.83;8.70;;;8.70;99.90;;;;;;5002372;28;20116;-73
2023/10/26 07:43:20;;;;;;;40.58;8.77;;;8.80;99.90;;;;;;5002307;28;20049;-73
2023/10/26 07:45:47;;;;;;;19.92;8.40;;;8.80;99.90;;;;;;5000369;28;20120;-73
2023/10/26 07:48:13;;;;;;;14.23;7.18;;;8.80;99.90;;;;;;4999591;28;20038;-73
2023/10/26 07:50:38;;;;;;;21.88;8.50;;;8.80;99.90;;;;;;5000997;28;20098;-74
2023/10/26 07:53:05;;;;;;;18.92;8.40;;;8.90;99.90;;;;;;5001692;28;20507;-74
2023/10/26 07:55:31;;;;;;;23.95;8.68;;;8.90;99.90;;;;;;5002635;28;20472;-73
2023/10/26 07:57:57;;;;;;;19.17;8.38;;;8.90;99.90;;;;;;5001924;28;20046;-73
2023/10/26 08:00:22;;;;;;;26.63;8.32;;;9.00;99.90;;;;;;5001546;28;20045;-73
2023/10/26 08:02:48;;;;;;;17.75;9.30;;;9.00;99.90;;;;;;4983147;28;20057;-74
2023/10/26 08:05:15;;;;;;;23.90;8.48;;;9.00;99.90;;;;;;4998843;28;20048;-73
2023/10/26 08:07:41;;;;;;;29.67;10.30;;;9.00;99.90;;;;;;4997454;28;20089;-74
2023/10/26 08:10:09;;;;;;;23.17;10.13;;;9.10;99.90;;;;;;5000296;28;20092;-75
2023/10/26 08:12:35;;;;;;;21.80;10.35;;;9.10;99.90;;;;;;4997416;28;20080;-74
2023/10/26 08:15:02;;;;;;;26.23;9.93;;;9.10;99.90;;;;;;5001131;28;20049;-74
2023/10/26 08:17:28;;;;;;;24.92;10.13;;;9.10;99.90;;;;;;4998453;28;20527;-74
2023/10/26 08:19:55;;;;;;;24.88;9.45;;;9.20;99.90;;;;;;4999995;28;20057;-74
2023/10/26 08:22:21;;;;;;;21.35;9.98;;;9.20;99.90;;;;;;4997832;28;20038;-73
2023/10/26 08:24:50;;;;;;;31.83;9.98;;;9.20;99.90;;;;;;4998603;28;20045;-74
2023/10/26 08:27:15;;;;;;;23.70;9.98;;;9.30;99.90;;;;;;4998330;28;20041;-73
2023/10/26 08:29:41;;;;;;;26.58;11.20;;;9.30;99.90;;;;;;4997885;28;20496;-74
2023/10/26 08:32:07;;;;;;;52.38;10.35;;;9.30;99.90;;;;;;5001004;28;20370;-74
2023/10/26 08:34:33;;;;;;;40.42;10.30;;;9.30;99.90;;;;;;4982551;28;20042;-74
2023/10/26 08:37:01;;;;;;;27.17;8.82;;;9.30;99.90;;;;;;4998350;28;20030;-74
2023/10/26 08:39:27;;;;;;;33.72;9.07;;;9.30;99.90;;;;;;4998726;28;21024;-74
2023/10/26 08:41:58;;;;;;;24.48;11.35;;;9.30;99.90;;;;;;4998986;28;20124;-73
2023/10/26 08:44:24;;;;;;;21.40;11.38;;;9.40;99.90;;;;;;4982266;28;20351;-73
2023/10/26 08:46:53;;;;;;;19.70;9.48;;;9.40;99.90;;;;;;4998100;28;20052;-74
2023/10/26 08:49:21;;;;;;;23.95;10.65;;;9.40;99.90;;;;;;4982164;28;20127;-74
2023/10/26 08:51:46;;;;;;;25.33;10.88;;;9.50;99.90;;;;;;4998389;28;20124;-74
2023/10/26 08:54:12;;;;;;;24.85;9.85;;;9.50;99.90;;;;;;4997978;28;20203;-74
2023/10/26 08:56:38;;;;;;;20.88;11.60;;;9.50;99.90;;;;;;4983194;28;20034;-74
2023/10/26 08:59:04;;;;;;;31.58;10.70;;;9.50;99.90;;;;;;4983964;28;20143;-75
2023/10/26 09:01:30;;;;;;;22.60;10.65;;;9.60;99.90;;;;;;5004106;28;20061;-73
2023/10/26 09:03:55;;;;;;;20.58;9.23;;;9.60;99.90;;;;;;5001868;28;20046;-74
2023/10/26 09:06:21;;;;;;;29.80;9.95;;;9.60;99.90;;;;;;5001880;28;20042;-74
2023/10/26 09:09:03;;;;;;;20.45;10.10;;;9.60;99.90;;;;;;4997927;28;20596;-74
2023/10/26 09:11:29;;;;;;;28.45;11.23;;;9.60;99.90;;;;;;5001147;28;20065;-74
2023/10/26 09:14:15;;;;;;;26.92;10.68;;;9.60;99.90;;;;;;5002632;28;20213;-74
2023/10/26 09:16:42;;;;;;;27.52;11.02;;;9.70;99.90;;;;;;5000581;28;20083;-75
2023/10/26 09:19:08;;;;;;;33.20;10.88;;;9.70;99.90;;;;;;5002250;28;20056;-74
2023/10/26 09:21:56;;;;;;;26.65;11.07;;;9.70;99.90;;;;;;5001357;28;20030;-74
2023/10/26 09:24:24;;;;;;;25.33;11.25;;;9.80;99.90;;;;;;5001618;28;20053;-74
2023/10/26 09:26:54;;;;;;;26.35;12.05;;;9.90;99.90;;;;;;5002164;28;20104;-74
2023/10/26 09:29:21;;;;;;;24.05;11.05;;;9.90;99.90;;;;;;5001753;28;20096;-74
2023/10/26 09:31:54;;;;;;;27.30;12.50;;;9.90;99.90;;;;;;5001436;28;20334;-74
2023/10/26 09:34:24;;;;;;;32.05;13.00;;;10.00;99.90;;;;;;5002507;28;20382;-74
2023/10/26 09:37:04;;;;;;;36.35;13.00;;;10.00;99.90;;;;;;5001238;28;20048;-74
2023/10/26 09:39:35;;;;;;;28.05;12.20;;;10.10;99.90;;;;;;5001922;28;20045;-74
2023/10/26 09:42:01;;;;;;;32.30;14.52;;;10.10;99.90;;;;;;5002119;28;20050;-74
2023/10/26 09:44:31;;;;;;;31.27;14.00;;;10.10;99.90;;;;;;5001615;28;20737;-74
2023/10/26 09:46:58;;;;;;;27.65;12.52;;;10.20;99.90;;;;;;5001959;28;20072;-74
2023/10/26 09:49:25;;;;;;;30.77;10.20;;;10.20;99.90;;;;;;5001666;28;20795;-74
2023/10/26 09:51:52;;;;;;;27.95;11.80;;;10.20;99.90;;;;;;5002414;28;20049;-74
2023/10/26 09:54:22;;;;;;;31.50;14.93;;;10.20;99.90;;;;;;5001524;28;20042;-74
2023/10/26 09:56:58;;;;;;;30.75;15.23;;;10.20;99.90;;;;;;5000960;28;20451;-74
2023/10/26 09:59:24;;;;;;;28.42;12.75;;;10.30;99.90;;;;;;5001680;28;20335;-74
2023/10/26 10:01:49;;;;;;;35.65;14.02;;;10.30;99.90;;;;;;5000985;28;20496;-74
2023/10/26 10:04:18;;;;;;;32.30;13.15;;;10.30;99.90;;;;;;5001552;28;20038;-74
2023/10/26 10:06:51;;;;;;;36.88;13.68;;;10.30;99.90;;;;;;5000780;28;20084;-74
2023/10/26 10:09:27;;;;;;;34.33;13.32;;;10.30;99.90;;;;;;5000054;28;20073;-75
2023/10/26 10:12:05;;;;;;;35.00;13.20;;;10.30;99.90;;;;;;4983201;28;20072;-74
2023/10/26 10:14:54;;;;;;;26.80;13.38;;;10.40;99.90;;;;;;5000663;28;20588;-74
2023/10/26 10:17:46;;;;;;;23.20;11.68;;;10.40;99.90;;;;;;5000971;28;20132;-74
2023/10/26 10:20:17;;;;;;;31.02;12.40;;;10.30;99.90;;;;;;4999327;28;20489;-75
2023/10/26 10:22:58;;;;;;;29.13;13.33;;;10.30;99.90;;;;;;5000630;28;20045;-75
2023/10/26 10:25:49;;;;;;;31.67;12.10;;;10.30;99.90;;;;;;5000064;28;20045;-74
2023/10/26 10:28:16;;;;;;;24.75;11.18;;;10.30;99.90;;;;;;4999637;28;20038;-74
2023/10/26 10:30:50;;;;;;;35.95;13.13;;;10.30;99.90;;;;;;4985037;28;20042;-74
2023/10/26 10:33:26;;;;;;;31.60;13.15;;;10.30;99.90;;;;;;5001031;28;20054;-74
2023/10/26 10:36:01;;;;;;;24.02;11.18;;;10.30;99.90;;;;;;5001231;28;20042;-75
2023/10/26 10:38:31;;;;;;;27.52;12.00;;;10.30;99.90;;;;;;5000814;28;20045;-75
2023/10/26 10:40:59;;;;;;;22.88;10.38;;;10.40;99.90;;;;;;4982918;28;20042;-74
2023/10/26 10:43:32;;;;;;;28.83;11.80;;;10.40;99.90;;;;;;4983529;28;20061;-75
2023/10/26 10:46:08;;;;;;;23.38;12.05;;;10.40;99.90;;;;;;5000420;28;20254;-74
2023/10/26 10:48:35;;;;;;;27.15;12.05;;;10.50;99.90;;;;;;4997137;28;20085;-77
2023/10/26 10:51:01;;;;;;;25.38;11.32;;;10.50;99.90;;;;;;5004289;28;20056;-76
2023/10/26 10:53:29;;;;;;;23.20;12.38;;;10.60;99.90;;;;;;5001025;28;20046;-76
2023/10/26 10:55:55;;;;;;;22.45;11.35;;;10.60;99.90;;;;;;5000405;28;20046;-76
2023/10/26 10:58:20;;;;;;;23.95;11.15;;;10.60;99.90;;;;;;4998691;28;20037;-76
2023/10/26 11:00:48;;;;;;;22.02;8.35;;;10.60;99.90;;;;;;4998199;28;20128;-77
2023/10/26 11:03:21;;;;;;;22.05;11.10;;;10.60;99.90;;;;;;4999031;28;20067;-76
2023/10/26 11:05:47;;;;;;;22.50;11.07;;;10.60;99.90;;;;;;4997935;28;20053;-76
2023/10/26 11:08:13;;;;;;;23.52;9.43;;;10.60;99.90;;;;;;4981624;28;20038;-76
2023/10/26 11:10:39;;;;;;;22.75;9.05;;;10.60;99.90;;;;;;4998652;28;20054;-76
2023/10/26 11:13:05;;;;;;;16.00;9.75;;;10.60;99.90;;;;;;5000682;28;20116;-76
2023/10/26 11:15:35;;;;;;;21.52;10.10;;;10.60;99.90;;;;;;5001965;28;20041;-75
2023/10/26 11:18:01;;;;;;;22.98;10.20;;;10.60;99.90;;;;;;4983109;28;20087;-75
2023/10/26 11:20:41;;;;;;;21.77;10.05;;;10.60;99.90;;;;;;4982774;28;20116;-75
2023/10/26 11:23:08;;;;;;;25.40;10.57;;;10.70;99.90;;;;;;4982619;28;20404;-75
2023/10/26 11:25:34;;;;;;;28.98;10.25;;;10.70;99.90;;;;;;5001311;28;20053;-76
2023/10/26 11:28:00;;;;;;;17.60;11.38;;;10.70;99.90;;;;;;5000989;28;20042;-74
2023/10/26 11:30:26;;;;;;;16.77;10.10;;;10.70;99.90;;;;;;4999094;28;20046;-75
2023/10/26 11:32:51;;;;;;;20.73;9.88;;;10.70;99.90;;;;;;5001103;28;20103;-75
2023/10/26 11:35:17;;;;;;;21.98;9.95;;;10.80;99.90;;;;;;4998505;28;20057;-74
2023/10/26 11:37:53;;;;;;;14.43;9.18;;;10.70;99.90;;;;;;5015462;28;20092;-75
2023/10/26 11:40:31;;;;;;;19.05;8.43;;;10.70;99.90;;;;;;5000889;28;20385;-75
2023/10/26 11:42:59;;;;;;;19.25;9.23;;;10.70;99.90;;;;;;5000350;28;20045;-75
2023/10/26 11:45:25;;;;;;;15.07;8.77;;;10.70;99.90;;;;;;4998538;28;20058;-75
2023/10/26 11:47:58;;;;;;;20.08;9.52;;;10.70;99.90;;;;;;4999602;28;20042;-75
2023/10/26 11:50:27;;;;;;;;;;;10.70;99.90;;;;;;4998388;28;20041;-75
2023/10/26 11:52:55;;;;;;;18.92;9.18;;;10.70;99.90;;;;;;4999209;28;20507;-75
2023/10/26 11:55:21;;;;;;;19.10;8.57;;;10.70;99.90;;;;;;4999665;28;20087;-75
2023/10/26 11:57:47;;;;;;;19.13;8.93;;;10.60;99.90;;;;;;4998758;28;20046;-75
2023/10/26 12:00:15;;;;;;;18.02;9.93;;;10.70;99.90;;;;;;4999360;28;20499;-75
2023/10/26 12:02:41;;;;;;;12.38;6.78;;;10.70;99.90;;;;;;4998863;28;20041;-75
2023/10/26 12:05:07;;;;;;;11.88;7.70;;;10.70;99.90;;;;;;4998886;28;20484;-75
2023/10/26 12:07:33;;;;;;;14.10;8.85;;;10.70;99.90;;;;;;4999107;28;20046;-75
2023/10/26 12:10:01;;;;;;;17.73;8.80;;;10.80;99.90;;;;;;4999540;28;20069;-75
2023/10/26 12:12:26;;;;;;;18.75;9.07;;;10.80;99.90;;;;;;5000629;28;20645;-75
2023/10/26 12:14:52;;;;;;;19.75;9.45;;;10.80;99.90;;;;;;4999349;28;20038;-74
2023/10/26 12:17:17;;;;;;;15.93;8.77;;;10.80;99.90;;;;;;5000787;28;20042;-75
2023/10/26 12:19:43;;;;;;;19.60;9.05;;;10.80;99.90;;;;;;4999706;28;20045;-75
2023/10/26 12:22:08;;;;;;;15.98;9.88;;;10.80;99.90;;;;;;4998625;28;20288;-75
2023/10/26 12:24:35;;;;;;;17.77;8.43;;;10.80;99.90;;;;;;4998260;28;20049;-76
2023/10/26 12:27:01;;;;;;;20.75;9.85;;;10.90;99.90;;;;;;5000250;28;20387;-75
2023/10/26 12:29:27;;;;;;;17.65;8.80;;;10.90;99.90;;;;;;4998566;28;20120;-75
2023/10/26 12:31:53;;;;;;;20.40;9.38;;;10.90;99.90;;;;;;4999084;28;20042;-75
2023/10/26 12:34:21;;;;;;;14.63;7.95;;;10.90;99.90;;;;;;5003354;28;20519;-75
2023/10/26 12:36:47;;;;;;;18.85;8.70;;;11.00;99.90;;;;;;5003726;28;20038;-74
2023/10/26 12:39:13;;;;;;;17.50;8.57;;;11.00;99.90;;;;;;4987480;28;20038;-75